createdAt,value
2023-06-20T00:01:12.062Z,15.97
2023-06-20T00:03:40.031Z,15.63
2023-06-20T00:06:07.880Z,18.03
2023-06-20T00:08:35.725Z,16.70
2023-06-20T00:11:05.015Z,17.53
2023-06-20T00:13:32.868Z,17.07
2023-06-20T00:16:02.221Z,16.27
2023-06-20T00:18:30.696Z,16.67
2023-06-20T00:20:58.618Z,16.77
2023-06-20T00:23:26.507Z,16.40
2023-06-20T00:25:54.394Z,17.17
2023-06-20T00:28:23.631Z,16.57
2023-06-20T00:30:51.756Z,16.93
2023-06-20T00:33:19.920Z,16.90
2023-06-20T00:35:47.798Z,16.70
2023-06-20T00:38:15.635Z,16.83
2023-06-20T00:40:43.477Z,16.40
2023-06-20T00:43:13.442Z,16.47
2023-06-20T00:45:43.047Z,15.90
2023-06-20T00:48:11.018Z,16.13
2023-06-20T00:50:38.974Z,15.97
2023-06-20T00:53:07.750Z,14.93
2023-06-20T00:55:36.555Z,15.53
2023-06-20T00:58:05.945Z,14.30
2023-06-20T01:00:35.300Z,15.17
2023-06-20T01:03:08.257Z,15.43
2023-06-20T01:05:37.081Z,15.03
2023-06-20T01:08:13.884Z,15.70
2023-06-20T01:10:50.391Z,14.27
2023-06-20T01:13:25.799Z,14.93
2023-06-20T01:16:01.144Z,15.47
2023-06-20T01:18:37.305Z,14.90
2023-06-20T01:21:09.518Z,15.57
2023-06-20T01:23:42.574Z,14.63
2023-06-20T01:26:13.029Z,15.00
2023-06-20T01:28:44.192Z,15.60
2023-06-20T01:31:13.330Z,16.00
2023-06-20T01:33:50.787Z,15.97
2023-06-20T01:36:21.240Z,16.23
2023-06-20T01:38:52.387Z,15.70
2023-06-20T01:41:22.955Z,16.07
2023-06-20T01:43:52.332Z,16.27
2023-06-20T01:46:21.064Z,16.13
2023-06-20T01:48:50.090Z,16.40
2023-06-20T01:51:18.632Z,16.90
2023-06-20T01:53:47.045Z,15.90
2023-06-20T01:56:17.380Z,16.97
2023-06-20T01:58:45.352Z,16.13
2023-06-20T02:01:14.462Z,16.10
2023-06-20T02:03:43.340Z,16.70
2023-06-20T02:06:12.679Z,16.60
2023-06-20T02:08:41.225Z,17.67
2023-06-20T02:11:09.888Z,17.97
2023-06-20T02:13:39.340Z,17.53
2023-06-20T02:16:10.128Z,16.83
2023-06-20T02:18:38.042Z,17.47
2023-06-20T02:21:07.342Z,17.33
2023-06-20T02:23:36.471Z,17.50
2023-06-20T02:26:09.631Z,17.97
2023-06-20T02:28:41.334Z,17.60
2023-06-20T02:31:11.490Z,17.13
2023-06-20T02:33:40.706Z,18.97
2023-06-20T02:36:10.179Z,18.83
2023-06-20T02:38:38.645Z,19.07
2023-06-20T02:41:06.947Z,18.50
2023-06-20T02:43:35.372Z,18.50
2023-06-20T02:46:09.151Z,18.90
2023-06-20T02:48:42.557Z,19.17
2023-06-20T02:51:14.946Z,19.80
2023-06-20T02:53:47.002Z,22.03
2023-06-20T02:56:15.548Z,25.20
2023-06-20T02:58:46.521Z,24.63
2023-06-20T03:01:18.361Z,23.70
2023-06-20T03:03:47.296Z,25.50
2023-06-20T03:06:16.837Z,25.73
2023-06-20T03:08:50.905Z,25.67
2023-06-20T03:11:19.074Z,26.27
2023-06-20T03:13:47.017Z,25.67
2023-06-20T03:16:16.609Z,29.70
2023-06-20T03:18:44.525Z,28.43
2023-06-20T03:21:27.325Z,29.77
2023-06-20T03:23:56.458Z,29.93
2023-06-20T03:26:24.399Z,30.17
2023-06-20T03:28:52.385Z,31.53
2023-06-20T03:31:21.610Z,33.37
2023-06-20T03:33:49.847Z,32.83
2023-06-20T03:36:17.884Z,32.20
2023-06-20T03:38:45.807Z,33.50
2023-06-20T03:41:13.646Z,32.40
2023-06-20T03:43:41.535Z,32.17
2023-06-20T03:46:09.437Z,34.00
2023-06-20T03:48:38.750Z,36.07
2023-06-20T03:51:07.749Z,33.10
2023-06-20T03:53:35.620Z,32.23
2023-06-20T03:56:04.094Z,31.97
2023-06-20T03:58:32.110Z,31.70
2023-06-20T04:01:00.032Z,30.33
2023-06-20T04:03:30.281Z,29.70
2023-06-20T04:06:02.362Z,29.97
2023-06-20T04:08:30.614Z,28.43
2023-06-20T04:11:00.556Z,29.83
2023-06-20T04:13:28.823Z,29.20
2023-06-20T04:15:56.789Z,30.70
2023-06-20T04:18:24.695Z,29.07
2023-06-20T04:20:52.568Z,29.90
2023-06-20T04:23:21.760Z,28.57
2023-06-20T04:25:49.653Z,30.03
2023-06-20T04:28:18.605Z,29.37
2023-06-20T04:30:46.596Z,27.30
2023-06-20T04:33:14.627Z,26.60
2023-06-20T04:35:42.558Z,27.57
2023-06-20T04:38:10.620Z,25.87
2023-06-20T04:40:39.831Z,26.03
2023-06-20T04:43:07.702Z,26.00
2023-06-20T04:48:29.732Z,24.27
2023-06-20T04:50:57.868Z,26.63
2023-06-20T04:53:27.141Z,26.13
2023-06-20T04:55:56.390Z,25.63
2023-06-20T04:58:29.589Z,27.17
2023-06-20T05:00:57.826Z,27.17
2023-06-20T05:03:25.719Z,27.83
2023-06-20T05:05:54.122Z,28.43
2023-06-20T05:08:22.141Z,27.37
2023-06-20T05:10:50.158Z,27.73
2023-06-20T05:13:19.408Z,27.47
2023-06-20T05:15:47.468Z,28.67
2023-06-20T05:18:15.350Z,28.33
2023-06-20T05:20:43.283Z,27.83
2023-06-20T05:23:11.212Z,27.27
2023-06-20T05:25:39.247Z,28.87
2023-06-20T05:28:07.271Z,29.10
2023-06-20T05:30:36.700Z,27.87
2023-06-20T05:33:04.606Z,28.23
2023-06-20T05:35:32.518Z,27.13
2023-06-20T05:38:01.228Z,28.43
2023-06-20T05:40:29.221Z,28.50
2023-06-20T05:42:57.137Z,28.17
2023-06-20T05:45:25.017Z,28.93
2023-06-20T05:47:54.340Z,27.70
2023-06-20T05:50:24.047Z,27.77
2023-06-20T05:52:52.863Z,26.90
2023-06-20T05:55:22.011Z,27.10
2023-06-20T05:57:49.943Z,25.50
2023-06-20T06:00:19.038Z,24.33
2023-06-20T06:02:47.428Z,25.57
2023-06-20T06:05:16.841Z,27.67
2023-06-20T06:07:45.009Z,27.17
2023-06-20T06:10:13.157Z,27.20
2023-06-20T06:12:41.947Z,26.93
2023-06-20T06:15:11.183Z,25.63
2023-06-20T06:17:39.132Z,25.83
2023-06-20T06:20:13.152Z,25.23
2023-06-20T06:22:42.557Z,25.10
2023-06-20T06:25:11.142Z,23.20
2023-06-20T06:27:39.180Z,23.20
2023-06-20T06:30:10.118Z,22.70
2023-06-20T06:32:38.802Z,22.63
2023-06-20T06:35:07.973Z,22.67
2023-06-20T06:37:36.218Z,21.10
2023-06-20T06:40:07.621Z,20.87
2023-06-20T06:42:35.750Z,21.27
2023-06-20T06:45:04.601Z,20.80
2023-06-20T06:47:32.510Z,19.80
2023-06-20T06:50:00.584Z,20.10
2023-06-20T06:52:28.474Z,19.30
2023-06-20T06:54:56.985Z,19.57
2023-06-20T06:57:26.267Z,19.60
2023-06-20T06:59:54.285Z,18.77
2023-06-20T07:02:23.611Z,18.70
2023-06-20T07:04:51.539Z,17.20
2023-06-20T07:07:21.679Z,18.23
2023-06-20T07:09:49.505Z,16.13
2023-06-20T07:12:17.636Z,16.33
2023-06-20T07:14:47.178Z,16.70
2023-06-20T07:17:15.139Z,16.07
2023-06-20T07:19:43.073Z,14.37
2023-06-20T07:22:10.960Z,14.30
2023-06-20T07:24:40.142Z,14.90
2023-06-20T07:27:08.476Z,14.43
2023-06-20T07:29:36.476Z,15.47
2023-06-20T07:32:06.576Z,14.03
2023-06-20T07:34:34.779Z,12.80
2023-06-20T07:37:02.652Z,12.67
2023-06-20T07:42:26.316Z,13.17
2023-06-20T07:44:54.313Z,12.30
2023-06-20T07:47:23.611Z,13.67
2023-06-20T07:49:51.505Z,13.27
2023-06-20T07:52:19.396Z,12.47
2023-06-20T07:54:47.289Z,14.27
2023-06-20T07:57:15.351Z,12.93
2023-06-20T07:59:43.218Z,12.23
2023-06-20T08:02:11.085Z,12.83
2023-06-20T08:04:40.322Z,14.73
2023-06-20T08:07:08.830Z,13.83
2023-06-20T08:09:37.090Z,15.20
2023-06-20T08:12:05.693Z,13.53
2023-06-20T08:14:33.845Z,12.83
2023-06-20T08:17:01.815Z,13.13
2023-06-20T08:19:29.624Z,11.87
2023-06-20T08:21:58.870Z,12.47
2023-06-20T08:24:26.853Z,12.00
2023-06-20T08:26:54.809Z,10.83
2023-06-20T08:29:22.761Z,12.23
2023-06-20T08:31:50.723Z,13.67
2023-06-20T08:34:18.595Z,12.83
2023-06-20T08:36:46.423Z,12.37
2023-06-20T08:39:15.931Z,11.43
2023-06-20T08:41:43.837Z,10.80
2023-06-20T08:44:12.556Z,10.70
2023-06-20T08:46:40.492Z,10.53
2023-06-20T08:49:10.698Z,10.37
2023-06-20T08:51:40.842Z,9.50
2023-06-20T08:54:10.628Z,9.63
2023-06-20T08:56:40.360Z,10.00
2023-06-20T08:59:08.213Z,9.43
2023-06-20T09:01:36.809Z,9.33
2023-06-20T09:04:05.013Z,10.23
2023-06-20T09:06:33.803Z,9.40
2023-06-20T09:09:01.713Z,9.20
2023-06-20T09:11:29.578Z,9.20
2023-06-20T09:14:02.133Z,9.00
2023-06-20T09:16:30.326Z,8.87
2023-06-20T09:19:00.655Z,7.77
2023-06-20T09:21:28.799Z,8.20
2023-06-20T09:24:04.263Z,7.87
2023-06-20T09:26:33.225Z,9.30
2023-06-20T09:29:11.027Z,7.73
2023-06-20T09:31:42.829Z,7.30
2023-06-20T09:34:14.338Z,7.70
2023-06-20T09:36:42.458Z,7.27
2023-06-20T09:39:13.271Z,8.07
2023-06-20T09:41:47.964Z,7.57
2023-06-20T09:44:17.958Z,8.37
2023-06-20T09:46:46.377Z,7.03
2023-06-20T09:49:15.962Z,7.47
2023-06-20T09:51:46.444Z,6.47
2023-06-20T09:54:16.797Z,6.90
2023-06-20T09:56:48.668Z,6.67
2023-06-20T09:59:18.502Z,6.47
2023-06-20T10:01:46.960Z,6.60
2023-06-20T10:04:15.541Z,6.57
2023-06-20T10:06:43.605Z,6.03
2023-06-20T10:09:12.108Z,6.53
2023-06-20T10:11:40.573Z,6.30
2023-06-20T10:14:09.054Z,6.20
2023-06-20T10:16:38.409Z,6.37
2023-06-20T10:19:19.191Z,6.53
2023-06-20T10:21:58.358Z,6.50
2023-06-20T10:24:31.985Z,7.07
2023-06-20T10:27:01.897Z,6.30
2023-06-20T10:29:30.406Z,7.10
2023-06-20T10:32:09.699Z,7.30
2023-06-20T10:34:38.924Z,6.27
2023-06-20T10:37:17.648Z,7.00
2023-06-20T10:39:55.713Z,6.83
2023-06-20T10:42:33.996Z,6.50
2023-06-20T10:45:27.044Z,7.23
2023-06-20T10:47:57.836Z,6.87
2023-06-20T10:50:25.974Z,7.07
2023-06-20T10:52:54.116Z,6.73
2023-06-20T10:55:24.960Z,6.33
2023-06-20T10:57:53.350Z,6.80
2023-06-20T11:00:23.899Z,6.90
2023-06-20T11:02:53.494Z,6.23
2023-06-20T11:05:26.309Z,6.57
2023-06-20T11:07:55.396Z,7.07
2023-06-20T11:10:24.152Z,6.30
2023-06-20T11:12:52.171Z,6.33
2023-06-20T11:15:30.230Z,6.57
2023-06-20T11:17:58.894Z,6.30
2023-06-20T11:20:38.723Z,6.10
2023-06-20T11:23:08.058Z,7.03
2023-06-20T11:25:37.417Z,6.70
2023-06-20T11:28:06.829Z,7.00
2023-06-20T11:30:36.603Z,6.90
2023-06-20T11:33:06.682Z,7.77
2023-06-20T11:35:50.962Z,6.63
2023-06-20T11:38:21.436Z,6.17
2023-06-20T11:40:52.305Z,6.80
2023-06-20T11:43:27.539Z,7.00
2023-06-20T11:48:50.315Z,8.10
2023-06-20T11:51:24.935Z,7.47
2023-06-20T11:54:01.907Z,7.00
2023-06-20T11:56:29.913Z,7.17
2023-06-20T11:58:58.070Z,7.20
2023-06-20T12:01:26.425Z,6.70
2023-06-20T12:04:04.792Z,7.90
2023-06-20T12:06:35.008Z,7.10
2023-06-20T12:09:09.363Z,7.20
2023-06-20T12:11:38.231Z,7.13
2023-06-20T12:14:07.039Z,6.87
2023-06-20T12:16:34.931Z,7.23
2023-06-20T12:19:02.915Z,7.53
2023-06-20T12:21:30.795Z,7.20
2023-06-20T12:24:00.288Z,7.17
2023-06-20T12:26:28.234Z,7.10
2023-06-20T12:28:56.074Z,6.57
2023-06-20T12:31:23.970Z,7.17
2023-06-20T12:33:52.267Z,7.27
2023-06-20T12:36:20.486Z,7.80
2023-06-20T12:38:48.396Z,7.33
2023-06-20T12:41:18.468Z,6.93
2023-06-20T12:43:46.336Z,7.43
2023-06-20T12:48:50.163Z,8.77
2023-06-20T12:51:18.462Z,8.63
2023-06-20T12:53:46.385Z,7.93
2023-06-20T12:56:14.557Z,7.60
2023-06-20T12:58:43.856Z,7.20
2023-06-20T13:01:12.075Z,7.77
2023-06-20T13:03:41.383Z,7.43
2023-06-20T13:06:11.966Z,7.03
2023-06-20T13:08:41.626Z,6.97
2023-06-20T13:11:09.506Z,7.50
2023-06-20T13:13:38.519Z,7.27
2023-06-20T13:16:08.846Z,6.73
2023-06-20T13:18:39.182Z,7.03
2023-06-20T13:21:07.512Z,7.27
2023-06-20T13:23:35.599Z,6.80
2023-06-20T13:26:03.663Z,8.23
2023-06-20T13:28:31.906Z,7.13
2023-06-20T13:31:00.061Z,6.87
2023-06-20T13:33:29.340Z,8.17
2023-06-20T13:35:57.277Z,7.63
2023-06-20T13:38:25.216Z,6.80
2023-06-20T13:40:53.134Z,6.47
2023-06-20T13:43:21.203Z,7.63
2023-06-20T13:45:52.017Z,9.73
2023-06-20T13:48:21.383Z,7.23
2023-06-20T13:50:50.613Z,6.77
2023-06-20T13:53:18.704Z,6.17
2023-06-20T13:55:47.280Z,7.03
2023-06-20T13:58:15.192Z,6.30
2023-06-20T14:00:43.316Z,6.70
2023-06-20T14:03:11.285Z,6.67
2023-06-20T14:05:39.228Z,6.43
2023-06-20T14:08:08.762Z,6.70
2023-06-20T14:10:36.687Z,6.90
2023-06-20T14:13:04.549Z,6.77
2023-06-20T14:15:32.432Z,6.93
2023-06-20T14:18:00.302Z,7.47
2023-06-20T14:20:28.421Z,6.50
2023-06-20T14:22:56.494Z,6.60
2023-06-20T14:25:25.721Z,6.83
2023-06-20T14:27:53.686Z,7.40
2023-06-20T14:30:21.719Z,7.93
2023-06-20T14:32:49.949Z,6.70
2023-06-20T14:35:17.839Z,6.47
2023-06-20T14:37:45.747Z,6.90
2023-06-20T14:40:14.209Z,6.60
2023-06-20T14:42:43.400Z,7.03
2023-06-20T14:45:12.031Z,7.00
2023-06-20T14:47:40.113Z,6.27
2023-06-20T14:50:08.855Z,7.90
2023-06-20T14:52:36.796Z,7.40
2023-06-20T14:55:04.914Z,7.07
2023-06-20T14:57:32.853Z,7.30
2023-06-20T15:00:02.139Z,9.30
2023-06-20T15:02:30.362Z,7.47
2023-06-20T15:04:58.280Z,7.87
2023-06-20T15:07:26.217Z,7.07
2023-06-20T15:09:54.841Z,6.47
2023-06-20T15:12:22.697Z,6.90
2023-06-20T15:14:50.535Z,7.23
2023-06-20T15:17:19.760Z,6.97
2023-06-20T15:19:47.584Z,6.40
2023-06-20T15:22:32.768Z,6.77
2023-06-20T15:25:12.902Z,6.80
2023-06-20T15:27:47.377Z,7.27
2023-06-20T15:30:25.450Z,6.77
2023-06-20T15:32:55.006Z,7.30
2023-06-20T15:35:22.941Z,6.80
2023-06-20T15:37:50.769Z,8.50
2023-06-20T15:40:22.617Z,7.10
2023-06-20T15:42:52.261Z,9.00
2023-06-20T15:45:21.354Z,8.10
2023-06-20T15:47:49.460Z,13.63
2023-06-20T15:50:18.971Z,9.73
2023-06-20T15:52:46.821Z,8.27
2023-06-20T15:55:14.744Z,7.33
2023-06-20T15:57:42.737Z,7.13
2023-06-20T16:00:11.602Z,7.40
2023-06-20T16:02:39.726Z,6.97
2023-06-20T16:05:10.129Z,6.80
2023-06-20T16:07:40.162Z,6.80
2023-06-20T16:10:09.164Z,6.60
2023-06-20T16:12:37.028Z,7.00
2023-06-20T16:15:06.317Z,7.23
2023-06-20T16:17:34.213Z,6.40
2023-06-20T16:20:02.211Z,8.07
2023-06-20T16:22:30.122Z,6.53
2023-06-20T16:24:59.736Z,7.17
2023-06-20T16:27:27.685Z,6.90
2023-06-20T16:29:55.526Z,6.57
2023-06-20T16:32:23.496Z,6.20
2023-06-20T16:34:51.414Z,6.87
2023-06-20T16:37:19.500Z,6.90
2023-06-20T16:39:47.346Z,6.67
2023-06-20T16:42:17.950Z,7.10
2023-06-20T16:44:45.846Z,7.00
2023-06-20T16:47:15.180Z,7.03
2023-06-20T16:49:43.053Z,6.83
2023-06-20T16:52:11.106Z,7.10
2023-06-20T16:54:38.989Z,7.23
2023-06-20T16:57:08.267Z,7.53
2023-06-20T16:59:37.636Z,7.40
2023-06-20T17:02:06.231Z,7.00
2023-06-20T17:04:34.100Z,7.30
2023-06-20T17:07:01.937Z,7.60
2023-06-20T17:09:29.783Z,6.73
2023-06-20T17:11:57.637Z,7.60
2023-06-20T17:14:25.946Z,7.67
2023-06-20T17:16:57.689Z,7.80
2023-06-20T17:19:25.943Z,7.50
2023-06-20T17:22:02.552Z,7.27
2023-06-20T17:24:38.763Z,7.00
2023-06-20T17:27:07.373Z,6.73
2023-06-20T17:29:35.232Z,7.60
2023-06-20T17:32:05.223Z,7.37
2023-06-20T17:34:33.116Z,7.27
2023-06-20T17:37:00.987Z,7.30
2023-06-20T17:39:28.805Z,7.70
2023-06-20T17:41:56.971Z,7.03
2023-06-20T17:44:24.849Z,7.57
2023-06-20T17:46:56.913Z,8.07
2023-06-20T17:49:26.450Z,8.10
2023-06-20T17:51:54.390Z,8.20
2023-06-20T17:54:22.302Z,8.33
2023-06-20T17:56:50.180Z,8.47
2023-06-20T17:59:18.114Z,8.87
2023-06-20T18:01:46.096Z,9.60
2023-06-20T18:04:15.648Z,8.50
2023-06-20T18:06:44.941Z,9.13
2023-06-20T18:09:12.795Z,8.17
2023-06-20T18:11:40.680Z,7.63
2023-06-20T18:14:08.632Z,8.00
2023-06-20T18:16:36.584Z,8.03
2023-06-20T18:19:04.518Z,7.73
2023-06-20T18:21:33.878Z,7.87
2023-06-20T18:24:03.113Z,7.93
2023-06-20T18:26:31.012Z,7.80
2023-06-20T18:28:58.887Z,8.33
2023-06-20T18:31:26.748Z,8.03
2023-06-20T18:33:54.717Z,8.30
2023-06-20T18:36:22.685Z,8.07
2023-06-20T18:38:50.582Z,8.17
2023-06-20T18:41:19.784Z,7.97
2023-06-20T18:43:47.723Z,8.27
2023-06-20T18:46:16.122Z,8.03
2023-06-20T18:48:44.027Z,8.50
2023-06-20T18:51:12.764Z,8.27
2023-06-20T18:53:40.666Z,8.43
2023-06-20T18:56:08.521Z,8.17
2023-06-20T18:58:37.967Z,8.33
2023-06-20T19:01:05.927Z,8.80
2023-06-20T19:03:35.139Z,8.97
2023-06-20T19:06:06.275Z,8.20
2023-06-20T19:08:34.373Z,8.53
2023-06-20T19:11:02.320Z,9.43
2023-06-20T19:13:30.504Z,8.73
2023-06-20T19:15:59.862Z,8.57
2023-06-20T19:18:27.765Z,8.23
2023-06-20T19:20:55.855Z,8.73
2023-06-20T19:23:23.864Z,8.20
2023-06-20T19:25:51.801Z,7.93
2023-06-20T19:28:19.652Z,8.30
2023-06-20T19:30:47.583Z,8.57
2023-06-20T19:33:16.872Z,8.50
2023-06-20T19:35:44.734Z,8.77
2023-06-20T19:38:12.643Z,8.53
2023-06-20T19:40:41.669Z,8.60
2023-06-20T19:43:09.712Z,8.23
2023-06-20T19:45:39.983Z,8.23
2023-06-20T19:48:09.218Z,8.20
2023-06-20T19:50:38.465Z,8.23
2023-06-20T19:53:06.320Z,8.60
2023-06-20T19:55:34.246Z,7.63
2023-06-20T19:58:03.869Z,8.30
2023-06-20T20:00:32.032Z,7.67
2023-06-20T20:03:00.435Z,8.40
2023-06-20T20:05:28.343Z,8.10
2023-06-20T20:07:57.537Z,7.93
2023-06-20T20:10:25.586Z,7.67
2023-06-20T20:12:53.706Z,8.53
2023-06-20T20:15:21.728Z,8.27
2023-06-20T20:17:49.711Z,8.40
2023-06-20T20:20:17.644Z,8.37
2023-06-20T20:22:45.530Z,8.67
2023-06-20T20:25:14.899Z,8.30
2023-06-20T20:27:42.879Z,8.57
2023-06-20T20:30:11.832Z,8.53
2023-06-20T20:32:43.273Z,8.30
2023-06-20T20:35:11.493Z,7.67
2023-06-20T20:37:39.517Z,7.77
2023-06-20T20:40:12.754Z,7.90
2023-06-20T20:42:46.286Z,7.50
2023-06-20T20:45:14.197Z,7.47
2023-06-20T20:47:42.150Z,8.30
2023-06-20T20:50:10.841Z,8.30
2023-06-20T20:52:38.914Z,8.00
2023-06-20T20:55:07.846Z,8.50
2023-06-20T20:57:35.691Z,8.27
2023-06-20T21:00:10.674Z,8.30
2023-06-20T21:02:39.081Z,8.07
2023-06-20T21:05:07.092Z,8.97
2023-06-20T21:07:35.005Z,8.70
2023-06-20T21:10:02.924Z,8.80
2023-06-20T21:12:30.755Z,9.63
2023-06-20T21:14:58.631Z,9.13
2023-06-20T21:17:28.397Z,8.97
2023-06-20T21:19:57.637Z,8.70
2023-06-20T21:22:25.546Z,8.27
2023-06-20T21:24:53.468Z,8.60
2023-06-20T21:27:22.426Z,8.70
2023-06-20T21:29:50.360Z,8.33
2023-06-20T21:32:18.234Z,8.00
2023-06-20T21:34:47.898Z,9.03
2023-06-20T21:37:16.247Z,8.40
2023-06-20T21:39:44.208Z,9.47
2023-06-20T21:42:12.163Z,8.70
2023-06-20T21:44:40.004Z,9.33
2023-06-20T21:47:08.148Z,9.23
2023-06-20T21:49:36.048Z,9.27
2023-06-20T21:52:05.971Z,9.77
2023-06-20T21:54:34.055Z,9.97
2023-06-20T21:57:01.978Z,9.17
2023-06-20T21:59:30.058Z,9.00
2023-06-20T22:01:57.954Z,8.67
2023-06-20T22:04:25.800Z,9.33
2023-06-20T22:06:53.740Z,8.87
2023-06-20T22:09:22.996Z,9.10
2023-06-20T22:11:51.204Z,8.87
2023-06-20T22:14:19.137Z,9.00
2023-06-20T22:16:47.080Z,9.43
2023-06-20T22:19:16.962Z,8.73
2023-06-20T22:21:45.117Z,8.33
2023-06-20T22:24:13.153Z,9.80
2023-06-20T22:26:43.231Z,9.53
2023-06-20T22:29:11.104Z,10.20
2023-06-20T22:31:40.860Z,10.37
2023-06-20T22:34:08.815Z,9.63
2023-06-20T22:36:36.758Z,11.30
2023-06-20T22:39:05.498Z,10.60
2023-06-20T22:41:33.673Z,10.90
2023-06-20T22:44:02.956Z,10.97
2023-06-20T22:46:30.978Z,11.57
2023-06-20T22:49:00.897Z,11.20
2023-06-20T22:51:32.046Z,10.53
2023-06-20T22:54:00.544Z,10.57
2023-06-20T22:56:28.423Z,12.20
2023-06-20T22:58:56.435Z,11.80
2023-06-20T23:01:25.698Z,12.47
2023-06-20T23:03:53.655Z,12.60
2023-06-20T23:06:21.584Z,13.27
2023-06-20T23:08:49.477Z,12.90
2023-06-20T23:11:17.375Z,13.00
2023-06-20T23:13:45.285Z,12.57
2023-06-20T23:16:13.150Z,12.83
2023-06-20T23:18:42.567Z,13.07
2023-06-20T23:21:10.452Z,13.00
2023-06-20T23:23:41.265Z,12.87
2023-06-20T23:26:09.394Z,12.57
2023-06-20T23:28:37.266Z,13.50
2023-06-20T23:31:05.451Z,13.60
2023-06-20T23:33:33.644Z,14.50
2023-06-20T23:36:03.049Z,13.77
2023-06-20T23:38:31.215Z,13.40
2023-06-20T23:40:59.648Z,13.57
2023-06-20T23:43:27.754Z,13.60
2023-06-20T23:45:59.649Z,13.93
2023-06-20T23:48:27.528Z,14.23
2023-06-20T23:50:55.533Z,14.30
2023-06-20T23:53:24.748Z,15.67
2023-06-20T23:55:52.678Z,15.20
2023-06-20T23:58:20.621Z,15.43
